sensor_id;sensor_type;location;lat;lon;timestamp;pressure;altitude;pressure_sealevel;temperature;humidity
61357;BME280;47227;46.752;23.576;2023-04-05T00:00:22;96012.09;;;-0.65;97.52
61357;BME280;47227;46.752;23.576;2023-04-05T00:03:11;96012.53;;;-0.67;96.60
61357;BME280;47227;46.752;23.576;2023-04-05T00:05:39;96015.41;;;-0.70;96.38
61357;BME280;47227;46.752;23.576;2023-04-05T00:08:07;96016.81;;;-0.67;96.38
61357;BME280;47227;46.752;23.576;2023-04-05T00:10:40;96016.59;;;-0.65;96.72
61357;BME280;47227;46.752;23.576;2023-04-05T00:13:08;96013.98;;;-0.60;96.42
61357;BME280;47227;46.752;23.576;2023-04-05T00:15:36;96011.82;;;-0.55;96.45
61357;BME280;47227;46.752;23.576;2023-04-05T00:18:04;96007.77;;;-0.56;96.51
61357;BME280;47227;46.752;23.576;2023-04-05T00:20:33;96013.12;;;-0.52;96.26
61357;BME280;47227;46.752;23.576;2023-04-05T00:23:04;96010.13;;;-0.53;95.80
61357;BME280;47227;46.752;23.576;2023-04-05T00:25:33;96009.05;;;-0.59;95.31
61357;BME280;47227;46.752;23.576;2023-04-05T00:28:01;96008.96;;;-0.64;95.05
61357;BME280;47227;46.752;23.576;2023-04-05T00:30:29;96006.77;;;-0.74;94.05
61357;BME280;47227;46.752;23.576;2023-04-05T00:32:59;96006.25;;;-0.78;94.23
61357;BME280;47227;46.752;23.576;2023-04-05T00:35:28;96005.36;;;-0.76;94.57
61357;BME280;47227;46.752;23.576;2023-04-05T00:37:56;96006.23;;;-0.76;94.23
61357;BME280;47227;46.752;23.576;2023-04-05T00:40:25;96005.20;;;-0.76;94.44
61357;BME280;47227;46.752;23.576;2023-04-05T00:42:53;96003.49;;;-0.76;94.32
61357;BME280;47227;46.752;23.576;2023-04-05T00:45:21;96003.84;;;-0.80;93.57
61357;BME280;47227;46.752;23.576;2023-04-05T00:47:49;96002.46;;;-0.83;93.92
61357;BME280;47227;46.752;23.576;2023-04-05T00:50:20;96003.14;;;-0.86;93.53
61357;BME280;47227;46.752;23.576;2023-04-05T00:52:49;96001.75;;;-0.88;94.10
61357;BME280;47227;46.752;23.576;2023-04-05T00:55:17;96003.27;;;-0.88;94.28
61357;BME280;47227;46.752;23.576;2023-04-05T00:57:46;96001.36;;;-0.84;94.57
61357;BME280;47227;46.752;23.576;2023-04-05T01:00:19;96005.24;;;-0.84;94.39
61357;BME280;47227;46.752;23.576;2023-04-05T01:02:51;96006.88;;;-0.86;94.31
61357;BME280;47227;46.752;23.576;2023-04-05T01:05:37;96006.81;;;-0.89;93.98
61357;BME280;47227;46.752;23.576;2023-04-05T01:08:22;96006.34;;;-0.89;93.72
61357;BME280;47227;46.752;23.576;2023-04-05T01:10:58;96005.80;;;-0.87;93.88
61357;BME280;47227;46.752;23.576;2023-04-05T01:13:28;96007.32;;;-0.85;94.12
61357;BME280;47227;46.752;23.576;2023-04-05T01:15:57;96003.74;;;-0.90;93.81
61357;BME280;47227;46.752;23.576;2023-04-05T01:18:26;96005.98;;;-0.87;94.13
61357;BME280;47227;46.752;23.576;2023-04-05T01:21:06;96006.68;;;-0.86;94.14
61357;BME280;47227;46.752;23.576;2023-04-05T01:23:58;96007.45;;;-0.89;94.22
61357;BME280;47227;46.752;23.576;2023-04-05T01:26:59;96008.80;;;-0.83;94.21
61357;BME280;47227;46.752;23.576;2023-04-05T01:29:49;96008.56;;;-0.87;94.52
61357;BME280;47227;46.752;23.576;2023-04-05T01:32:30;96005.71;;;-0.83;94.27
61357;BME280;47227;46.752;23.576;2023-04-05T01:35:12;96011.22;;;-0.80;93.85
61357;BME280;47227;46.752;23.576;2023-04-05T01:37:47;96012.20;;;-0.72;93.88
61357;BME280;47227;46.752;23.576;2023-04-05T01:40:17;96011.95;;;-0.67;93.34
61357;BME280;47227;46.752;23.576;2023-04-05T01:42:45;96007.92;;;-0.60;93.37
61357;BME280;47227;46.752;23.576;2023-04-05T01:45:13;96006.73;;;-0.56;93.03
61357;BME280;47227;46.752;23.576;2023-04-05T01:47:42;96008.03;;;-0.50;92.85
61357;BME280;47227;46.752;23.576;2023-04-05T01:50:10;96006.47;;;-0.47;92.12
61357;BME280;47227;46.752;23.576;2023-04-05T01:52:38;96004.49;;;-0.37;92.49
61357;BME280;47227;46.752;23.576;2023-04-05T01:55:06;96002.29;;;-0.32;92.23
61357;BME280;47227;46.752;23.576;2023-04-05T01:57:37;96001.89;;;-0.36;91.45
61357;BME280;47227;46.752;23.576;2023-04-05T02:00:06;96001.13;;;-0.34;91.81
61357;BME280;47227;46.752;23.576;2023-04-05T02:02:39;95999.70;;;-0.33;91.88
61357;BME280;47227;46.752;23.576;2023-04-05T02:05:08;96003.09;;;-0.36;91.31
61357;BME280;47227;46.752;23.576;2023-04-05T02:07:36;96001.74;;;-0.39;91.12
61357;BME280;47227;46.752;23.576;2023-04-05T02:10:05;96001.36;;;-0.47;90.73
61357;BME280;47227;46.752;23.576;2023-04-05T02:12:33;95998.85;;;-0.53;90.44
61357;BME280;47227;46.752;23.576;2023-04-05T02:15:02;95999.72;;;-0.58;90.90
61357;BME280;47227;46.752;23.576;2023-04-05T02:17:30;95998.59;;;-0.59;91.02
61357;BME280;47227;46.752;23.576;2023-04-05T02:20:01;96000.49;;;-0.63;91.10
61357;BME280;47227;46.752;23.576;2023-04-05T02:22:29;95998.52;;;-0.63;91.03
61357;BME280;47227;46.752;23.576;2023-04-05T02:24:58;95999.66;;;-0.63;91.15
61357;BME280;47227;46.752;23.576;2023-04-05T02:27:28;96001.71;;;-0.72;91.42
61357;BME280;47227;46.752;23.576;2023-04-05T02:29:56;96001.65;;;-0.78;91.58
61357;BME280;47227;46.752;23.576;2023-04-05T02:32:24;96006.70;;;-0.80;91.63
61357;BME280;47227;46.752;23.576;2023-04-05T02:34:53;96005.36;;;-0.86;91.62
61357;BME280;47227;46.752;23.576;2023-04-05T02:37:23;96001.17;;;-0.89;91.47
61357;BME280;47227;46.752;23.576;2023-04-05T02:39:52;96005.76;;;-0.87;91.68
61357;BME280;47227;46.752;23.576;2023-04-05T02:42:21;96008.42;;;-0.86;91.43
61357;BME280;47227;46.752;23.576;2023-04-05T02:44:51;96005.75;;;-0.87;91.28
61357;BME280;47227;46.752;23.576;2023-04-05T02:47:19;96008.27;;;-0.85;91.16
61357;BME280;47227;46.752;23.576;2023-04-05T02:49:53;96007.92;;;-0.84;91.07
61357;BME280;47227;46.752;23.576;2023-04-05T02:52:22;96004.91;;;-0.85;90.79
61357;BME280;47227;46.752;23.576;2023-04-05T02:54:51;96004.66;;;-0.86;90.93
61357;BME280;47227;46.752;23.576;2023-04-05T02:57:24;95999.27;;;-0.86;90.80
61357;BME280;47227;46.752;23.576;2023-04-05T02:59:57;95997.46;;;-0.84;90.83
61357;BME280;47227;46.752;23.576;2023-04-05T03:02:26;95996.56;;;-0.87;90.84
61357;BME280;47227;46.752;23.576;2023-04-05T03:04:56;95991.70;;;-0.93;91.52
61357;BME280;47227;46.752;23.576;2023-04-05T03:07:24;95991.05;;;-0.84;91.23
61357;BME280;47227;46.752;23.576;2023-04-05T03:09:53;95984.77;;;-0.78;91.27
61357;BME280;47227;46.752;23.576;2023-04-05T03:12:21;95985.20;;;-0.71;91.62
61357;BME280;47227;46.752;23.576;2023-04-05T03:14:50;95983.54;;;-0.63;91.48
61357;BME280;47227;46.752;23.576;2023-04-05T03:17:21;95982.21;;;-0.55;91.11
61357;BME280;47227;46.752;23.576;2023-04-05T03:19:57;95986.14;;;-0.50;91.05
61357;BME280;47227;46.752;23.576;2023-04-05T03:22:27;95986.58;;;-0.44;90.78
61357;BME280;47227;46.752;23.576;2023-04-05T03:24:56;95984.39;;;-0.38;90.90
61357;BME280;47227;46.752;23.576;2023-04-05T03:27:25;95981.21;;;-0.34;90.96
61357;BME280;47227;46.752;23.576;2023-04-05T03:29:58;95985.48;;;-0.32;90.82
61357;BME280;47227;46.752;23.576;2023-04-05T03:32:27;95985.39;;;-0.33;90.80
61357;BME280;47227;46.752;23.576;2023-04-05T03:35:01;95990.96;;;-0.34;90.71
61357;BME280;47227;46.752;23.576;2023-04-05T03:37:29;95994.19;;;-0.38;90.44
61357;BME280;47227;46.752;23.576;2023-04-05T03:40:00;95994.89;;;-0.43;90.40
61357;BME280;47227;46.752;23.576;2023-04-05T03:42:28;95997.69;;;-0.49;90.14
61357;BME280;47227;46.752;23.576;2023-04-05T03:44:57;95996.97;;;-0.59;89.79
61357;BME280;47227;46.752;23.576;2023-04-05T03:47:27;95997.39;;;-0.68;89.71
61357;BME280;47227;46.752;23.576;2023-04-05T03:49:55;96001.90;;;-0.73;89.80
61357;BME280;47227;46.752;23.576;2023-04-05T03:52:23;96003.83;;;-0.77;89.81
61357;BME280;47227;46.752;23.576;2023-04-05T03:54:52;96008.39;;;-0.81;89.67
61357;BME280;47227;46.752;23.576;2023-04-05T03:57:21;96009.17;;;-0.87;89.77
61357;BME280;47227;46.752;23.576;2023-04-05T03:59:51;96006.79;;;-0.91;89.53
61357;BME280;47227;46.752;23.576;2023-04-05T04:02:19;96012.02;;;-0.95;89.54
61357;BME280;47227;46.752;23.576;2023-04-05T04:04:47;96013.34;;;-0.97;89.61
61357;BME280;47227;46.752;23.576;2023-04-05T04:07:16;96011.34;;;-0.98;89.44
61357;BME280;47227;46.752;23.576;2023-04-05T04:09:44;96013.77;;;-0.96;89.37
61357;BME280;47227;46.752;23.576;2023-04-05T04:12:15;96014.04;;;-0.95;89.22
61357;BME280;47227;46.752;23.576;2023-04-05T04:14:51;96012.20;;;-0.93;89.19
61357;BME280;47227;46.752;23.576;2023-04-05T04:17:33;96012.89;;;-0.88;89.54
61357;BME280;47227;46.752;23.576;2023-04-05T04:20:21;96014.31;;;-0.79;89.60
61357;BME280;47227;46.752;23.576;2023-04-05T04:23:05;96013.84;;;-0.72;89.66
61357;BME280;47227;46.752;23.576;2023-04-05T04:25:56;96006.02;;;-0.63;89.65
61357;BME280;47227;46.752;23.576;2023-04-05T04:28:36;96010.29;;;-0.54;89.70
61357;BME280;47227;46.752;23.576;2023-04-05T04:31:20;96012.74;;;-0.46;89.70
61357;BME280;47227;46.752;23.576;2023-04-05T04:34:09;96014.75;;;-0.40;89.53
61357;BME280;47227;46.752;23.576;2023-04-05T04:36:47;96017.86;;;-0.37;89.36
61357;BME280;47227;46.752;23.576;2023-04-05T04:39:46;96017.88;;;-0.34;89.27
61357;BME280;47227;46.752;23.576;2023-04-05T04:42:34;96017.11;;;-0.32;89.20
61357;BME280;47227;46.752;23.576;2023-04-05T04:45:26;96015.65;;;-0.31;89.02
61357;BME280;47227;46.752;23.576;2023-04-05T04:48:06;96016.92;;;-0.31;89.00
61357;BME280;47227;46.752;23.576;2023-04-05T04:50:52;96018.10;;;-0.28;88.85
61357;BME280;47227;46.752;23.576;2023-04-05T04:53:21;96018.23;;;-0.26;88.83
61357;BME280;47227;46.752;23.576;2023-04-05T04:55:51;96015.91;;;-0.24;88.81
61357;BME280;47227;46.752;23.576;2023-04-05T04:58:18;96016.52;;;-0.23;88.30
61357;BME280;47227;46.752;23.576;2023-04-05T05:00:54;96017.96;;;-0.21;88.39
61357;BME280;47227;46.752;23.576;2023-04-05T05:03:25;96017.51;;;-0.18;88.32
61357;BME280;47227;46.752;23.576;2023-04-05T05:05:53;96018.34;;;-0.14;88.28
61357;BME280;47227;46.752;23.576;2023-04-05T05:08:24;96019.29;;;-0.09;88.20
61357;BME280;47227;46.752;23.576;2023-04-05T05:10:52;96017.49;;;-0.04;88.15
61357;BME280;47227;46.752;23.576;2023-04-05T05:13:21;96016.83;;;-0.03;87.40
61357;BME280;47227;46.752;23.576;2023-04-05T05:15:49;96019.44;;;-0.00;87.40
61357;BME280;47227;46.752;23.576;2023-04-05T05:18:18;96021.36;;;0.02;87.13
61357;BME280;47227;46.752;23.576;2023-04-05T05:20:49;96021.16;;;0.08;87.43
61357;BME280;47227;46.752;23.576;2023-04-05T05:23:17;96024.55;;;0.11;86.47
61357;BME280;47227;46.752;23.576;2023-04-05T05:25:48;96023.40;;;0.15;86.48
61357;BME280;47227;46.752;23.576;2023-04-05T05:28:16;96023.21;;;0.18;85.91
61357;BME280;47227;46.752;23.576;2023-04-05T05:30:45;96021.54;;;0.26;86.27
61357;BME280;47227;46.752;23.576;2023-04-05T05:33:13;96020.58;;;0.33;86.52
61357;BME280;47227;46.752;23.576;2023-04-05T06:04:25;96021.04;;;1.37;83.30
61357;BME280;47227;46.752;23.576;2023-04-05T06:07:56;96023.16;;;1.49;83.54
61357;BME280;47227;46.752;23.576;2023-04-05T07:08:53;96051.55;;;1.96;75.44
61357;BME280;47227;46.752;23.576;2023-04-05T07:58:58;96066.95;;;4.05;68.83
61357;BME280;47227;46.752;23.576;2023-04-05T08:33:56;96074.17;;;2.76;73.75
61357;BME280;47227;46.752;23.576;2023-04-05T09:00:59;96086.46;;;1.79;79.25
61357;BME280;47227;46.752;23.576;2023-04-05T09:52:23;96113.58;;;2.35;77.66
61357;BME280;47227;46.752;23.576;2023-04-05T09:57:52;96117.72;;;2.25;77.65
61357;BME280;47227;46.752;23.576;2023-04-05T10:06:37;96115.58;;;2.45;76.76
61357;BME280;47227;46.752;23.576;2023-04-05T10:15:46;96122.23;;;3.44;73.56
61357;BME280;47227;46.752;23.576;2023-04-05T10:18:23;96124.14;;;3.32;73.48
61357;BME280;47227;46.752;23.576;2023-04-05T10:21:10;96128.05;;;3.02;74.32
61357;BME280;47227;46.752;23.576;2023-04-05T10:27:30;96129.55;;;2.91;75.53
61357;BME280;47227;46.752;23.576;2023-04-05T10:30:54;96128.58;;;3.04;75.79
61357;BME280;47227;46.752;23.576;2023-04-05T10:33:44;96130.39;;;2.96;75.27
61357;BME280;47227;46.752;23.576;2023-04-05T10:40:04;96130.88;;;3.07;74.74
61357;BME280;47227;46.752;23.576;2023-04-05T10:42:45;96129.66;;;2.93;74.79
61357;BME280;47227;46.752;23.576;2023-04-05T10:55:30;96127.68;;;3.25;74.15
61357;BME280;47227;46.752;23.576;2023-04-05T10:58:24;96130.16;;;3.22;73.36
61357;BME280;47227;46.752;23.576;2023-04-05T11:01:38;96128.59;;;3.36;72.81
61357;BME280;47227;46.752;23.576;2023-04-05T11:11:27;96127.42;;;4.32;71.96
61357;BME280;47227;46.752;23.576;2023-04-05T11:18:34;96128.45;;;4.63;68.86
61357;BME280;47227;46.752;23.576;2023-04-05T11:25:26;96125.59;;;4.40;68.63
61357;BME280;47227;46.752;23.576;2023-04-05T11:31:30;96134.02;;;4.23;70.01
61357;BME280;47227;46.752;23.576;2023-04-05T11:38:04;96132.02;;;4.76;69.64
61357;BME280;47227;46.752;23.576;2023-04-05T12:25:07;96125.77;;;4.83;64.72
61357;BME280;47227;46.752;23.576;2023-04-05T13:12:15;96098.66;;;4.87;65.37
61357;BME280;47227;46.752;23.576;2023-04-05T13:27:27;96106.20;;;4.38;66.41
61357;BME280;47227;46.752;23.576;2023-04-05T13:30:19;96108.20;;;4.48;66.56
61357;BME280;47227;46.752;23.576;2023-04-05T13:50:50;96092.55;;;4.83;65.20
61357;BME280;47227;46.752;23.576;2023-04-05T14:04:23;96093.53;;;4.04;67.81
61357;BME280;47227;46.752;23.576;2023-04-05T16:07:57;96113.48;;;3.16;68.62
61357;BME280;47227;46.752;23.576;2023-04-05T17:32:50;96128.44;;;2.56;72.43
61357;BME280;47227;46.752;23.576;2023-04-05T17:35:18;96130.66;;;2.59;72.46
61357;BME280;47227;46.752;23.576;2023-04-05T17:37:46;96131.27;;;2.61;72.20
61357;BME280;47227;46.752;23.576;2023-04-05T17:40:19;96132.02;;;2.62;72.48
61357;BME280;47227;46.752;23.576;2023-04-05T17:42:47;96127.32;;;2.62;72.32
61357;BME280;47227;46.752;23.576;2023-04-05T17:45:16;96129.84;;;2.61;72.17
61357;BME280;47227;46.752;23.576;2023-04-05T17:47:44;96132.77;;;2.60;72.26
61357;BME280;47227;46.752;23.576;2023-04-05T17:50:12;96129.34;;;2.57;72.28
61357;BME280;47227;46.752;23.576;2023-04-05T17:52:40;96128.36;;;2.54;72.42
61357;BME280;47227;46.752;23.576;2023-04-05T17:55:11;96134.92;;;2.52;72.58
61357;BME280;47227;46.752;23.576;2023-04-05T17:57:39;96137.44;;;2.49;72.40
61357;BME280;47227;46.752;23.576;2023-04-05T18:00:08;96136.27;;;2.45;72.72
61357;BME280;47227;46.752;23.576;2023-04-05T18:02:36;96135.57;;;2.41;72.93
61357;BME280;47227;46.752;23.576;2023-04-05T18:05:08;96134.13;;;2.37;73.03
61357;BME280;47227;46.752;23.576;2023-04-05T18:07:37;96134.73;;;2.35;72.98
61357;BME280;47227;46.752;23.576;2023-04-05T18:10:06;96136.36;;;2.32;73.37
61357;BME280;47227;46.752;23.576;2023-04-05T18:12:34;96137.88;;;2.32;73.37
61357;BME280;47227;46.752;23.576;2023-04-05T18:15:03;96140.94;;;2.34;73.74
61357;BME280;47227;46.752;23.576;2023-04-05T18:17:31;96139.63;;;2.36;73.64
61357;BME280;47227;46.752;23.576;2023-04-05T18:20:00;96141.10;;;2.38;73.85
61357;BME280;47227;46.752;23.576;2023-04-05T18:22:31;96138.50;;;2.40;73.83
61357;BME280;47227;46.752;23.576;2023-04-05T18:25:00;96139.52;;;2.41;73.70
61357;BME280;47227;46.752;23.576;2023-04-05T18:27:30;96142.80;;;2.42;73.90
61357;BME280;47227;46.752;23.576;2023-04-05T18:29:59;96132.98;;;2.40;73.66
61357;BME280;47227;46.752;23.576;2023-04-05T18:32:27;96138.87;;;2.40;73.44
61357;BME280;47227;46.752;23.576;2023-04-05T18:34:55;96137.63;;;2.37;73.50
61357;BME280;47227;46.752;23.576;2023-04-05T18:37:23;96134.41;;;2.34;73.46
61357;BME280;47227;46.752;23.576;2023-04-05T18:39:51;96132.73;;;2.32;73.29
61357;BME280;47227;46.752;23.576;2023-04-05T18:42:19;96132.45;;;2.32;73.58
61357;BME280;47227;46.752;23.576;2023-04-05T18:44:47;96128.80;;;2.31;73.42
61357;BME280;47227;46.752;23.576;2023-04-05T18:47:16;96133.01;;;2.30;73.45
61357;BME280;47227;46.752;23.576;2023-04-05T18:49:44;96131.10;;;2.30;73.46
61357;BME280;47227;46.752;23.576;2023-04-05T18:52:12;96130.63;;;2.31;73.40
61357;BME280;47227;46.752;23.576;2023-04-05T18:54:40;96125.80;;;2.30;73.21
61357;BME280;47227;46.752;23.576;2023-04-05T18:57:08;96123.50;;;2.29;73.04
61357;BME280;47227;46.752;23.576;2023-04-05T18:59:36;96125.01;;;2.28;72.96
61357;BME280;47227;46.752;23.576;2023-04-05T19:02:03;96124.92;;;2.26;73.10
61357;BME280;47227;46.752;23.576;2023-04-05T19:04:32;96118.92;;;2.24;73.19
61357;BME280;47227;46.752;23.576;2023-04-05T19:07:00;96118.67;;;2.25;73.17
61357;BME280;47227;46.752;23.576;2023-04-05T19:09:30;96119.77;;;2.26;73.24
61357;BME280;47227;46.752;23.576;2023-04-05T19:11:59;96120.34;;;2.28;73.33
61357;BME280;47227;46.752;23.576;2023-04-05T19:14:29;96116.98;;;2.30;73.35
61357;BME280;47227;46.752;23.576;2023-04-05T19:16:57;96121.70;;;2.33;73.33
61357;BME280;47227;46.752;23.576;2023-04-05T19:19:26;96117.80;;;2.35;73.23
61357;BME280;47227;46.752;23.576;2023-04-05T19:21:54;96115.81;;;2.37;73.19
61357;BME280;47227;46.752;23.576;2023-04-05T19:24:26;96111.74;;;2.38;72.99
61357;BME280;47227;46.752;23.576;2023-04-05T19:26:54;96108.87;;;2.38;72.74
61357;BME280;47227;46.752;23.576;2023-04-05T19:29:23;96108.17;;;2.36;72.83
61357;BME280;47227;46.752;23.576;2023-04-05T19:31:56;96107.58;;;2.36;72.69
61357;BME280;47227;46.752;23.576;2023-04-05T19:34:24;96103.71;;;2.34;72.49
61357;BME280;47227;46.752;23.576;2023-04-05T19:36:53;96104.55;;;2.31;72.47
61357;BME280;47227;46.752;23.576;2023-04-05T19:39:21;96098.97;;;2.29;72.44
61357;BME280;47227;46.752;23.576;2023-04-05T19:41:52;96101.16;;;2.27;72.38
61357;BME280;47227;46.752;23.576;2023-04-05T19:44:50;96103.03;;;2.25;72.36
61357;BME280;47227;46.752;23.576;2023-04-05T19:47:19;96098.93;;;2.20;72.44
61357;BME280;47227;46.752;23.576;2023-04-05T19:49:49;96096.22;;;2.18;72.61
61357;BME280;47227;46.752;23.576;2023-04-05T19:52:45;96094.86;;;2.15;72.53
61357;BME280;47227;46.752;23.576;2023-04-05T19:55:30;96092.83;;;2.12;72.52
61357;BME280;47227;46.752;23.576;2023-04-05T19:58:00;96093.16;;;2.11;72.56
61357;BME280;47227;46.752;23.576;2023-04-05T20:00:44;96091.44;;;2.11;72.84
61357;BME280;47227;46.752;23.576;2023-04-05T20:03:30;96088.60;;;2.13;72.98
61357;BME280;47227;46.752;23.576;2023-04-05T20:06:10;96088.81;;;2.17;73.00
61357;BME280;47227;46.752;23.576;2023-04-05T20:08:41;96085.95;;;2.20;73.07
61357;BME280;47227;46.752;23.576;2023-04-05T20:11:13;96083.84;;;2.24;73.23
61357;BME280;47227;46.752;23.576;2023-04-05T20:13:47;96082.50;;;2.26;72.96
61357;BME280;47227;46.752;23.576;2023-04-05T20:16:23;96082.32;;;2.27;72.88
61357;BME280;47227;46.752;23.576;2023-04-05T20:18:56;96080.21;;;2.27;72.86
61357;BME280;47227;46.752;23.576;2023-04-05T20:21:25;96075.41;;;2.27;72.67
61357;BME280;47227;46.752;23.576;2023-04-05T20:23:54;96076.04;;;2.28;72.55
61357;BME280;47227;46.752;23.576;2023-04-05T20:26:27;96075.85;;;2.27;72.53
61357;BME280;47227;46.752;23.576;2023-04-05T20:28:58;96071.95;;;2.26;72.54
61357;BME280;47227;46.752;23.576;2023-04-05T20:31:28;96071.50;;;2.24;72.34
61357;BME280;47227;46.752;23.576;2023-04-05T20:34:13;96070.17;;;2.22;72.43
61357;BME280;47227;46.752;23.576;2023-04-05T20:36:50;96071.54;;;2.21;72.32
61357;BME280;47227;46.752;23.576;2023-04-05T20:39:18;96074.23;;;2.20;72.24
61357;BME280;47227;46.752;23.576;2023-04-05T21:32:45;96053.59;;;2.31;66.90
61357;BME280;47227;46.752;23.576;2023-04-05T21:35:13;96050.74;;;2.30;66.70
61357;BME280;47227;46.752;23.576;2023-04-05T21:37:41;96050.85;;;2.29;66.46
61357;BME280;47227;46.752;23.576;2023-04-05T21:40:10;96047.86;;;2.28;66.56
61357;BME280;47227;46.752;23.576;2023-04-05T21:42:38;96043.48;;;2.26;66.54
61357;BME280;47227;46.752;23.576;2023-04-05T21:45:07;96051.05;;;2.25;66.74
61357;BME280;47227;46.752;23.576;2023-04-05T21:47:35;96047.80;;;2.23;66.71
61357;BME280;47227;46.752;23.576;2023-04-05T21:50:03;96045.98;;;2.22;66.81
61357;BME280;47227;46.752;23.576;2023-04-05T21:52:32;96044.14;;;2.20;66.66
61357;BME280;47227;46.752;23.576;2023-04-05T21:55:03;96045.06;;;2.17;66.79
61357;BME280;47227;46.752;23.576;2023-04-05T21:57:31;96045.04;;;2.14;66.99
61357;BME280;47227;46.752;23.576;2023-04-05T22:00:00;96045.83;;;2.13;66.66
61357;BME280;47227;46.752;23.576;2023-04-05T22:02:39;96040.14;;;2.10;66.75
61357;BME280;47227;46.752;23.576;2023-04-05T22:05:08;96042.33;;;2.10;67.05
61357;BME280;47227;46.752;23.576;2023-04-05T22:07:36;96043.08;;;2.08;66.78
61357;BME280;47227;46.752;23.576;2023-04-05T22:10:06;96042.64;;;2.06;66.81
61357;BME280;47227;46.752;23.576;2023-04-05T22:12:36;96044.79;;;2.04;66.65
61357;BME280;47227;46.752;23.576;2023-04-05T22:15:04;96049.92;;;2.04;66.24
61357;BME280;47227;46.752;23.576;2023-04-05T22:17:32;96044.48;;;2.06;66.34
61357;BME280;47227;46.752;23.576;2023-04-05T22:20:01;96045.87;;;2.09;65.47
61357;BME280;47227;46.752;23.576;2023-04-05T22:22:29;96038.79;;;2.10;65.41
61357;BME280;47227;46.752;23.576;2023-04-05T22:24:56;96041.85;;;2.11;65.33
61357;BME280;47227;46.752;23.576;2023-04-05T22:27:24;96041.52;;;2.09;64.76
61357;BME280;47227;46.752;23.576;2023-04-05T22:29:54;96045.55;;;2.07;64.40
61357;BME280;47227;46.752;23.576;2023-04-05T22:32:55;96048.45;;;2.05;64.52
61357;BME280;47227;46.752;23.576;2023-04-05T22:35:23;96042.56;;;2.01;64.68
61357;BME280;47227;46.752;23.576;2023-04-05T22:37:52;96037.70;;;1.96;64.64
61357;BME280;47227;46.752;23.576;2023-04-05T22:40:20;96040.16;;;1.93;64.78
61357;BME280;47227;46.752;23.576;2023-04-05T22:42:53;96033.33;;;1.90;64.61
61357;BME280;47227;46.752;23.576;2023-04-05T22:45:22;96034.10;;;1.86;64.68
61357;BME280;47227;46.752;23.576;2023-04-05T22:47:51;96033.27;;;1.82;64.73
61357;BME280;47227;46.752;23.576;2023-04-05T22:50:20;96027.02;;;1.79;65.36
61357;BME280;47227;46.752;23.576;2023-04-05T22:52:48;96027.95;;;1.76;65.33
61357;BME280;47227;46.752;23.576;2023-04-05T22:55:15;96030.55;;;1.72;65.59
61357;BME280;47227;46.752;23.576;2023-04-05T22:57:43;96025.27;;;1.69;65.73
61357;BME280;47227;46.752;23.576;2023-04-05T23:00:12;96025.98;;;1.65;65.86
61357;BME280;47227;46.752;23.576;2023-04-05T23:02:41;96025.27;;;1.61;65.47
61357;BME280;47227;46.752;23.576;2023-04-05T23:05:09;96025.52;;;1.57;65.37
61357;BME280;47227;46.752;23.576;2023-04-05T23:07:37;96021.27;;;1.54;65.58
61357;BME280;47227;46.752;23.576;2023-04-05T23:10:06;96020.77;;;1.48;65.38
61357;BME280;47227;46.752;23.576;2023-04-05T23:12:34;96022.32;;;1.45;65.28
61357;BME280;47227;46.752;23.576;2023-04-05T23:15:02;96019.41;;;1.41;65.56
61357;BME280;47227;46.752;23.576;2023-04-05T23:17:30;96020.01;;;1.38;65.40
61357;BME280;47227;46.752;23.576;2023-04-05T23:19:58;96022.50;;;1.35;65.38
61357;BME280;47227;46.752;23.576;2023-04-05T23:22:26;96014.46;;;1.31;65.23
61357;BME280;47227;46.752;23.576;2023-04-05T23:24:54;96012.41;;;1.26;65.54
61357;BME280;47227;46.752;23.576;2023-04-05T23:27:22;96012.45;;;1.21;65.21
61357;BME280;47227;46.752;23.576;2023-04-05T23:29:50;96006.84;;;1.19;65.48
61357;BME280;47227;46.752;23.576;2023-04-05T23:32:18;96004.34;;;1.12;65.30
61357;BME280;47227;46.752;23.576;2023-04-05T23:34:46;96004.19;;;1.12;65.20
61357;BME280;47227;46.752;23.576;2023-04-05T23:37:14;96001.16;;;1.09;65.68
61357;BME280;47227;46.752;23.576;2023-04-05T23:39:43;96001.07;;;1.06;65.97
61357;BME280;47227;46.752;23.576;2023-04-05T23:42:12;96002.86;;;1.03;66.21
61357;BME280;47227;46.752;23.576;2023-04-05T23:44:40;96000.39;;;1.02;66.23
61357;BME280;47227;46.752;23.576;2023-04-05T23:47:08;95995.93;;;1.01;66.30
61357;BME280;47227;46.752;23.576;2023-04-05T23:49:36;95995.73;;;1.00;66.39
61357;BME280;47227;46.752;23.576;2023-04-05T23:52:04;96000.06;;;1.02;66.44
61357;BME280;47227;46.752;23.576;2023-04-05T23:54:33;96001.42;;;1.05;66.31
61357;BME280;47227;46.752;23.576;2023-04-05T23:57:01;95999.05;;;1.06;66.15
61357;BME280;47227;46.752;23.576;2023-04-05T23:59:29;95996.39;;;1.05;65.82
